Impacts TAF Board
For situational awareness. Not to be used for flight planning purposes.
IDs:

KCXO - Conroe/Executive Arp, TX, US

Issued at 1721 UTC 21 May 2022
Updated at 2301 UTC 21 May 2022
Potential Impact None Slight Moderate High
Time<<22/11Z 22/12Z 22/13Z 22/14Z 22/15Z 22/16Z 22/17Z 22/18Z 22/19Z 22/20Z 22/21Z 22/22Z 22/23Z>>
Type PRVL
  [TEMP]  
PRVL
  [TEMP]  
PRVL
  [TEMP]  
PRVL PRVL PRVL PRVL
VIS >6
  [>6]  
>6
  [>6]  
>6
  [>6]  
>6 >6 >6 >6
CIG 15
  [7]  
15
  [7]  
15
  [7]  
15 15 15 120
Cover BKN
  [BKN]  
BKN
  [BKN]  
BKN
  [BKN]  
BKN BKN BKN BKN
FltCat MVFR
  [IFR]  
MVFR
  [IFR]  
MVFR
  [IFR]  
MVFR MVFR MVFR VFR
WX VCSH
  [--]  
VCSH
  [--]  
VCSH
  [--]  
VCSH VCSH VCSH VCSH
WDir 20
[20]
20
[20]
20
[20]
20 20 20 20
WSpd 12
  [12]  
12
  [12]  
12
  [12]  
12 12 12 9
WGst --
  [--]  
--
  [--]  
--
  [--]  
-- -- -- --
WSHgt --
[--]
--
[--]
--
[--]
-- -- -- --
WSDir --
[--]
--
[--]
--
[--]
-- -- -- --
WSSpd --
[--]
--
[--]
--
[--]
-- -- -- --
Raw TAF
KCXO 211721Z 2118/2218 16012G22KT P6SM SCT040
  FM220200 15009KT P6SM SCT025 BKN150
  FM220600 15010KT P6SM -RA VCTS BKN020CB
  TEMPO 2207/2211 VRB25KT 2SM TSRA BKN010CB
  FM221100 02012KT P6SM VCSH SCT008 BKN015
  TEMPO 2211/2214 BKN007
  FM221700 02009KT P6SM VCSH SCT025 BKN120


METAR Board
Radar Display
Forecast Discussion
For situational awareness. Not to be used for flight planning purposes.